Time;durP1;ratioP1;P1;durP2;ratioP2;P2;SDS_P1;SDS_P2;PMS_P1;PMS_P2;Temp;Humidity;BMP_temperature;BMP_pressure;BME280_temperature;BME280_humidity;BME280_pressure;Samples;Min_cycle;Max_cycle;Signal;HPM_P1;HPM_P2
2022/05/01 00:02:25;;;;;;;7.93;4.70;;;;;;;10.23;100.00;61893.88;5095126;28;20188;-73
2022/05/01 00:04:53;;;;;;;8.03;5.40;;;;;;;9.78;100.00;61846.22;5096922;28;20463;-73
2022/05/01 00:07:20;;;;;;;7.53;4.90;;;;;;;10.19;100.00;61885.59;5094622;28;20207;-71
2022/05/01 00:09:47;;;;;;;9.40;5.67;;;;;;;10.19;100.00;61885.06;5094491;28;20547;-72
2022/05/01 00:12:13;;;;;;;7.50;5.00;;;;;;;10.28;100.00;61896.69;5094083;28;20658;-73
2022/05/01 00:14:40;;;;;;;6.33;5.20;;;;;;;10.12;100.00;61883.19;5090705;28;20261;-73
2022/05/01 00:17:07;;;;;;;8.23;5.63;;;;;;;10.12;100.00;61885.72;5089695;28;20196;-72
2022/05/01 00:19:35;;;;;;;6.00;5.13;;;;;;;10.24;100.00;61900.59;5093993;28;20508;-72
2022/05/01 00:22:02;;;;;;;9.87;6.80;;;;;;;10.18;100.00;61889.06;5093996;28;20854;-73
2022/05/01 00:24:29;;;;;;;43.73;19.93;;;;;;;10.25;100.00;61899.13;5093531;28;20226;-72
2022/05/01 00:26:56;;;;;;;49.20;20.00;;;;;;;10.08;100.00;61881.41;5094126;28;20203;-72
2022/05/01 00:29:24;;;;;;;21.67;11.37;;;;;;;9.92;100.00;61863.75;5093960;28;20203;-71
2022/05/01 00:31:51;;;;;;;18.40;8.23;;;;;;;9.91;100.00;61858.13;5093691;28;20971;-73
2022/05/01 00:37:03;;;;;;;15.07;8.53;;;;;;;9.35;100.00;61800.75;5093668;28;20425;-73
2022/05/01 00:39:30;;;;;;;18.50;10.17;;;;;;;9.61;100.00;61828.03;5093646;28;20902;-73
2022/05/01 00:41:57;;;;;;;18.47;10.30;;;;;;;9.50;100.00;61818.81;5093526;28;20445;-73
2022/05/01 00:44:23;;;;;;;20.87;10.70;;;;;;;9.45;100.00;61811.44;5093549;28;20449;-72
2022/05/01 00:46:53;;;;;;;20.90;10.67;;;;;;;9.71;100.00;61841.81;5093979;28;20510;-73
2022/05/01 00:49:22;;;;;;;21.90;12.27;;;;;;;9.45;100.00;61810.91;5093156;28;20485;-74
2022/05/01 00:51:51;;;;;;;17.97;10.73;;;;;;;9.24;100.00;61789.50;5093411;28;20966;-73
2022/05/01 00:54:21;;;;;;;23.20;11.83;;;;;;;9.38;100.00;61804.47;5093566;28;20812;-72
2022/05/01 00:56:50;;;;;;;15.47;9.00;;;;;;;9.31;100.00;61793.91;5093184;28;20446;-72
2022/05/01 00:59:18;;;;;;;11.90;7.83;;;;;;;9.21;100.00;61785.75;5093036;28;21035;-73
2022/05/01 01:01:47;;;;;;;14.87;9.17;;;;;;;9.32;100.00;61795.53;5092996;28;20445;-73
2022/05/01 01:04:14;;;;;;;15.63;9.27;;;;;;;9.29;100.00;61794.31;5093042;28;20855;-73
2022/05/01 01:06:41;;;;;;;13.57;9.17;;;;;;;9.30;100.00;61795.94;5093306;28;20203;-72
2022/05/01 01:09:09;;;;;;;24.07;9.27;;;;;;;9.38;100.00;61804.47;5092745;28;20200;-72
2022/05/01 01:11:38;;;;;;;20.73;11.27;;;;;;;9.47;100.00;61815.59;5093074;28;20485;-72
2022/05/01 01:14:05;;;;;;;34.20;16.67;;;;;;;9.43;100.00;61811.31;5092887;28;20816;-72
2022/05/01 01:16:34;;;;;;;26.47;14.30;;;;;;;9.33;100.00;61799.16;5092901;28;20481;-72
2022/05/01 01:19:01;;;;;;;33.00;16.43;;;;;;;9.23;100.00;61791.00;5092987;28;20565;-72
2022/05/01 01:21:30;;;;;;;19.83;11.83;;;;;;;9.12;100.00;61781.75;5091718;28;20448;-72
2022/05/01 01:23:59;;;;;;;14.03;9.97;;;;;;;9.26;100.00;61791.09;5092604;28;21060;-73
2022/05/01 01:26:27;;;;;;;12.17;8.37;;;;;;;9.38;100.00;61806.50;5092771;28;20503;-72
2022/05/01 01:28:56;;;;;;;14.63;9.37;;;;;;;9.32;100.00;61800.59;5092823;28;20498;-73
2022/05/01 01:31:41;;;;;;;10.60;8.50;;;;;;;9.39;100.00;61802.47;5092482;28;20445;-72
2022/05/01 01:34:12;;;;;;;13.87;9.43;;;;;;;9.19;100.00;61783.63;5092604;28;20447;-71
2022/05/01 01:36:42;;;;;;;10.77;8.97;;;;;;;9.28;100.00;61798.88;5092666;28;20442;-72
2022/05/01 01:39:09;;;;;;;12.53;9.70;;;;;;;9.38;100.00;61801.94;5092577;28;20473;-72
2022/05/01 01:41:39;;;;;;;13.53;10.17;;;;;;;8.56;100.00;61719.31;5093009;28;20437;-72
2022/05/01 01:44:08;;;;;;;14.43;9.37;;;;;;;9.28;100.00;61795.78;5092686;28;20861;-72
2022/05/01 01:46:35;;;;;;;18.70;11.60;;;;;;;9.31;100.00;61799.53;5092299;28;20438;-73
2022/05/01 01:49:02;;;;;;;30.13;15.70;;;;;;;9.24;100.00;61792.03;5092371;28;20441;-72
2022/05/01 01:51:29;;;;;;;17.63;11.87;;;;;;;9.20;100.00;61782.16;5092320;28;20442;-72
2022/05/01 01:53:57;;;;;;;30.07;15.13;;;;;;;9.20;100.00;61782.16;5092190;28;20502;-73
2022/05/01 01:56:24;;;;;;;32.97;17.30;;;;;;;9.23;100.00;61791.00;5092381;28;20872;-73
2022/05/01 01:58:50;;;;;;;55.60;22.47;;;;;;;9.25;100.00;61790.59;5092144;28;20516;-72
2022/05/01 02:01:17;;;;;;;138.23;48.73;;;;;;;9.04;100.00;61768.13;5092297;28;20449;-72
2022/05/01 02:03:44;;;;;;;83.67;34.97;;;;;;;9.03;100.00;61767.06;5091862;28;20497;-71
2022/05/01 02:06:11;;;;;;;88.83;34.40;;;;;;;8.94;100.00;61757.41;5091985;28;20453;-71
2022/05/01 02:08:40;;;;;;;71.37;28.60;;;;;;;8.25;100.00;61683.66;5092232;28;20956;-71
2022/05/01 02:11:10;;;;;;;32.97;16.63;;;;;;;8.95;100.00;61755.97;5092401;28;20966;-72
2022/05/01 02:13:37;;;;;;;21.43;12.93;;;;;;;9.06;100.00;61770.25;5091942;28;20437;-71
2022/05/01 02:16:06;;;;;;;16.70;11.03;;;;;;;9.12;100.00;61779.22;5092019;28;20875;-72
2022/05/01 02:18:33;;;;;;;18.30;12.60;;;;;;;9.00;100.00;61763.84;5091714;28;20558;-72
2022/05/01 02:23:44;;;;;;;28.37;17.77;;;;;;;8.98;100.00;61761.69;5092208;28;20452;-73
2022/05/01 02:26:13;;;;;;;36.37;17.70;;;;;;;9.09;100.00;61773.47;5091994;28;20509;-73
2022/05/01 02:28:40;;;;;;;22.00;14.17;;;;;;;9.05;100.00;61771.72;5091911;28;20543;-73
2022/05/01 02:31:06;;;;;;;21.27;13.20;;;;;;;9.00;100.00;61763.84;5091875;28;20582;-73
2022/05/01 02:33:34;;;;;;;19.63;13.07;;;;;;;8.80;100.00;61742.44;5091931;28;20481;-73
2022/05/01 02:36:03;;;;;;;21.23;12.37;;;;;;;8.81;100.00;61743.53;5092126;28;20529;-73
2022/05/01 02:38:30;;;;;;;16.40;11.60;;;;;;;8.74;100.00;61736.03;5091684;28;20825;-72
2022/05/01 02:40:57;;;;;;;18.30;13.20;;;;;;;8.63;100.00;61724.28;5091920;28;20442;-73
2022/05/01 02:43:27;;;;;;;18.73;12.30;;;;;;;8.61;100.00;61722.13;5091172;28;21063;-73
2022/05/01 02:45:53;;;;;;;19.07;12.90;;;;;;;8.49;100.00;61709.31;5091486;28;20506;-72
2022/05/01 02:48:22;;;;;;;20.90;13.83;;;;;;;8.45;100.00;61705.03;5091347;28;20442;-73
2022/05/01 02:50:48;;;;;;;20.47;12.80;;;;;;;8.55;100.00;61715.19;5091709;28;20449;-71
2022/05/01 02:53:15;;;;;;;18.47;12.83;;;;;;;8.65;100.00;61728.41;5091582;28;20445;-71
2022/05/01 02:55:42;;;;;;;18.73;13.43;;;;;;;8.58;100.00;61718.38;5091402;28;20936;-72
2022/05/01 02:58:09;;;;;;;16.47;12.90;;;;;;;8.48;100.00;61710.78;5091444;28;20588;-74
2022/05/01 03:00:37;;;;;;;20.53;13.83;;;;;;;8.57;100.00;61715.31;5091184;28;20510;-73
2022/05/01 03:03:04;;;;;;;21.40;13.70;;;;;;;8.67;100.00;61728.56;5091331;28;20440;-73
2022/05/01 03:05:31;;;;;;;17.37;13.03;;;;;;;8.06;100.00;61663.84;5091293;28;20453;-72
2022/05/01 03:07:58;;;;;;;21.33;13.60;;;;;;;8.57;100.00;61717.31;5091490;28;20511;-72
2022/05/01 03:10:24;;;;;;;21.17;14.47;;;;;;;8.60;100.00;61717.97;5091371;28;20442;-72
2022/05/01 03:12:52;;;;;;;21.17;15.00;;;;;;;8.43;100.00;61697.81;5091276;28;20885;-72
2022/05/01 03:15:18;;;;;;;22.37;14.57;;;;;;;8.68;100.00;61732.16;5091105;28;20491;-72
2022/05/01 03:23:15;;;;;;;21.57;16.17;;;;;;;8.38;100.00;61698.09;5091420;28;21017;-72
2022/05/01 03:25:42;;;;;;;22.70;16.37;;;;;;;8.34;100.00;61693.81;5091599;28;20880;-72
2022/05/01 03:28:09;;;;;;;21.57;15.53;;;;;;;8.24;100.00;61682.56;5091330;28;20437;-72
2022/05/01 03:30:36;;;;;;;24.70;16.77;;;;;;;8.33;100.00;61692.72;5091134;28;20816;-72
2022/05/01 03:33:07;;;;;;;22.63;17.30;;;;;;;8.41;100.00;61703.28;5093973;28;20481;-73
2022/05/01 03:35:36;;;;;;;27.60;18.87;;;;;;;7.77;100.00;61639.94;5094971;28;20498;-74
2022/05/01 03:38:04;;;;;;;23.83;17.10;;;;;;;8.61;100.00;61724.69;5094805;28;20442;-73
2022/05/01 03:40:31;;;;;;;24.57;16.73;;;;;;;7.58;100.00;61612.59;5094667;28;20529;-73
2022/05/01 03:42:57;;;;;;;32.67;17.57;;;;;;;8.54;100.00;61717.19;5094897;28;20503;-71
2022/05/01 03:45:25;;;;;;;34.50;17.53;;;;;;;8.28;100.00;61689.38;5098031;28;20799;-74
2022/05/01 03:47:52;;;;;;;37.33;20.63;;;;;;;8.70;100.00;61736.28;5097023;28;20885;-73
2022/05/01 03:50:20;;;;;;;41.40;22.70;;;;;;;8.67;100.00;61728.56;5094641;28;20454;-72
2022/05/01 03:52:47;;;;;;;38.43;22.77;;;;;;;8.66;100.00;61727.47;5094556;28;20434;-73
2022/05/01 03:55:14;;;;;;;45.87;25.03;;;;;;;8.72;100.00;61733.88;5093800;28;20438;-72
2022/05/01 03:57:41;;;;;;;47.70;24.93;;;;;;;8.76;100.00;61740.16;5094464;28;20502;-73
2022/05/01 04:00:10;;;;;;;36.00;20.37;;;;;;;8.87;100.00;61749.94;5094454;28;21026;-73
2022/05/01 04:02:41;;;;;;;39.43;22.00;;;;;;;8.99;100.00;61762.78;5094456;28;20528;-74
2022/05/01 04:05:09;;;;;;;31.43;21.07;;;;;;;9.07;100.00;61768.78;5094438;28;20967;-73
2022/05/01 04:07:37;;;;;;;36.17;20.67;;;;;;;9.20;100.00;61782.16;5094560;28;20442;-72
2022/05/01 04:10:05;;;;;;;29.23;18.13;;;;;;;9.34;100.00;61799.66;5094188;28;20442;-72
2022/05/01 04:12:36;;;;;;;25.07;15.60;;;;;;;9.42;100.00;61808.22;5093898;28;20442;-72
2022/05/01 04:15:07;;;;;;;20.53;15.00;;;;;;;9.41;100.00;61802.09;5094263;28;20495;-72
2022/05/01 04:17:36;;;;;;;22.50;14.53;;;;;;;8.95;100.00;61757.97;5094279;28;20532;-71
2022/05/01 04:20:05;;;;;;;19.00;13.27;;;;;;;9.38;100.00;61803.44;5094412;28;20524;-72
2022/05/01 04:22:38;;;;;;;21.03;13.90;;;;;;;9.28;100.00;61790.69;5093829;28;20821;-73
2022/05/01 04:25:14;;;;;;;23.77;14.03;;;;;;;9.31;100.00;61797.00;5092685;28;20967;-73
2022/05/01 04:27:42;;;;;;;23.27;14.53;;;;;;;9.40;100.00;61808.09;5094060;28;20441;-73
2022/05/01 04:30:11;;;;;;;21.30;13.87;;;;;;;9.43;100.00;61813.84;5092611;28;20450;-73
2022/05/01 04:32:48;;;;;;;24.97;15.43;;;;;;;9.65;100.00;61832.84;5093789;28;20477;-72
2022/05/01 04:35:20;;;;;;;19.20;13.40;;;;;;;9.73;100.00;61843.94;5093990;28;20433;-72
2022/05/01 04:37:49;;;;;;;19.77;14.00;;;;;;;9.89;100.00;61860.53;5093690;28;20448;-72
2022/05/01 04:40:16;;;;;;;22.03;13.50;;;;;;;9.75;100.00;61843.00;5093875;28;20562;-73
2022/05/01 04:42:43;;;;;;;17.93;12.37;;;;;;;9.79;100.00;61842.75;5093231;28;20450;-72
2022/05/01 04:45:12;;;;;;;18.73;13.00;;;;;;;9.97;100.00;61869.09;5093608;28;20433;-73
2022/05/01 04:47:39;;;;;;;19.77;13.80;;;;;;;10.10;100.00;61880.50;5093143;28;20457;-73
2022/05/01 04:50:07;;;;;;;18.33;12.47;;;;;;;10.28;100.00;61899.25;5093685;28;20834;-73
2022/05/01 04:52:36;;;;;;;19.03;13.70;;;;;;;10.35;100.00;61909.81;5093376;28;21004;-72
2022/05/01 04:55:06;;;;;;;19.73;13.67;;;;;;;10.62;100.00;61940.75;5093396;28;20532;-73
2022/05/01 04:57:33;;;;;;;19.60;12.47;;;;;;;10.69;100.00;61943.69;5093327;28;20268;-72
2022/05/01 05:00:01;;;;;;;17.23;12.73;;;;;;;10.74;100.00;61948.53;5093710;28;20554;-72
2022/05/01 05:02:36;;;;;;;16.90;12.67;;;;;;;11.07;100.00;61984.41;5093725;28;20279;-73
2022/05/01 05:05:03;;;;;;;17.23;11.23;;;;;;;11.14;100.00;61985.75;5093471;28;20206;-72
2022/05/01 05:07:30;;;;;;;16.67;12.63;;;;;;;10.98;100.00;61979.34;5093252;28;20287;-72
2022/05/01 05:09:56;;;;;;;19.27;12.40;;;;;;;11.25;100.00;62002.66;5093051;28;20832;-73
2022/05/01 05:12:24;;;;;;;15.00;11.60;;;;;;;11.48;100.00;62027.28;5092470;28;20284;-72
2022/05/01 05:14:54;;;;;;;14.43;10.80;;;;;;;11.65;100.00;62045.53;5093160;28;20200;-73
2022/05/01 05:17:22;;;;;;;16.03;9.77;;;;;;;11.63;100.00;62040.84;5092904;28;20203;-74
2022/05/01 05:19:49;;;;;;;16.87;11.33;;;;;;;11.49;100.00;62025.81;5092769;28;20223;-74
2022/05/01 05:22:17;;;;;;;19.60;13.40;;;;;;;11.59;100.00;62037.06;5092691;28;20196;-73
2022/05/01 05:24:44;;;;;;;15.67;11.63;;;;;;;11.74;100.00;62055.19;5092768;28;20210;-72
2022/05/01 05:27:11;;;;;;;29.00;17.63;;;;;;;11.56;100.00;62033.31;5092808;28;20607;-72
2022/05/01 05:29:40;;;;;;;23.07;13.97;;;;;;;11.74;100.00;62055.19;5092707;28;20652;-73
2022/05/01 05:32:08;;;;;;;20.83;13.87;;;;;;;11.59;100.00;62039.09;5091373;28;20680;-71
2022/05/01 05:34:37;;;;;;;16.57;12.50;;;;;;;11.84;100.00;62063.38;5092839;28;20244;-73
2022/05/01 05:37:04;;;;;;;14.73;11.20;;;;;;;12.16;100.00;62100.25;5093367;28;20200;-73
2022/05/01 05:39:31;;;;;;;10.70;8.10;;;;;;;12.16;100.00;62095.16;5100081;28;20651;-71
2022/05/01 05:41:58;;;;;;;16.17;10.97;;;;;;;12.12;100.00;62095.97;5093117;28;20196;-72
2022/05/01 05:44:25;;;;;;;13.87;8.20;;;;;;;12.39;100.00;62124.41;5092649;28;20196;-71
2022/05/01 05:46:55;;;;;;;11.77;10.07;;;;;;;12.22;100.00;62101.03;5092484;28;20646;-73
2022/05/01 05:49:23;;;;;;;11.90;9.50;;;;;;;12.97;100.00;62188.69;5092205;28;20199;-73
2022/05/01 05:51:49;;;;;;;16.83;9.00;;;;;;;13.16;100.00;62209.13;5092506;28;20261;-72
2022/05/01 05:54:16;;;;;;;15.07;9.90;;;;;;;12.72;100.00;62160.34;5091709;28;20223;-73
2022/05/01 05:56:43;;;;;;;13.00;8.63;;;;;;;13.32;100.00;62223.75;5092334;28;20196;-71
2022/05/01 05:59:10;;;;;;;9.80;7.67;;;;;;;13.46;100.00;62238.78;5092308;28;20277;-73
2022/05/01 06:01:37;;;;;;;12.47;7.60;;;;;;;13.51;100.00;62244.16;5092259;28;20244;-72
2022/05/01 06:04:06;;;;;;;16.30;9.63;;;;;;;13.90;100.00;62283.50;5092082;28;20261;-71
2022/05/01 06:06:35;;;;;;;12.87;8.97;;;;;;;13.98;100.00;62292.09;5092328;28;20684;-73
2022/05/01 06:09:03;;;;;;;10.70;8.57;;;;;;;14.13;100.00;62305.66;5092565;28;20204;-72
2022/05/01 06:11:30;;;;;;;12.63;8.50;;;;;;;14.28;100.00;62324.38;5092088;28;20199;-72
2022/05/01 06:13:57;;;;;;;10.87;7.17;;;;;;;14.20;100.00;62320.34;5092147;28;20196;-72
2022/05/01 06:16:24;;;;;;;10.13;7.63;;;;;;;14.10;100.00;62307.56;5091989;28;20195;-73
2022/05/01 06:18:50;;;;;;;10.57;8.13;;;;;;;14.29;100.00;62325.44;5091684;28;20257;-72
2022/05/01 06:21:19;;;;;;;11.80;8.77;;;;;;;14.41;100.00;62339.84;5091860;28;20616;-72
2022/05/01 06:23:48;;;;;;;19.57;8.70;;;;;;;14.49;100.00;62348.44;5091598;28;20211;-72
2022/05/01 06:26:15;;;;;;;12.23;8.50;;;;;;;14.99;100.00;62402.22;5092053;28;20223;-72
2022/05/01 06:28:41;;;;;;;10.90;7.87;;;;;;;14.89;100.00;62386.88;5091748;28;20630;-72
2022/05/01 06:31:10;;;;;;;9.00;7.90;;;;;;;14.95;100.00;62398.44;5091763;28;20199;-72
2022/05/01 06:33:39;;;;;;;12.07;7.73;;;;;;;15.01;100.00;62401.81;5091870;28;20284;-72
2022/05/01 06:36:07;;;;;;;10.40;8.10;;;;;;;15.00;100.00;62403.28;5091855;28;20191;-74
2022/05/01 06:38:36;;;;;;;12.73;7.87;;;;;;;14.97;100.00;62394.94;5091764;28;20200;-72
2022/05/01 06:41:04;;;;;;;10.17;7.80;;;;;;;15.09;100.00;62407.84;5091664;28;20280;-74
2022/05/01 06:43:32;;;;;;;8.80;7.20;;;;;;;14.54;100.00;62351.25;5091428;28;20686;-73
2022/05/01 06:45:59;;;;;;;11.17;6.93;;;;;;;14.84;100.00;62386.09;5091809;28;20207;-71
2022/05/01 06:48:25;;;;;;;10.07;7.37;;;;;;;15.01;100.00;62409.50;5091522;28;20661;-74
2022/05/01 06:50:52;;;;;;;10.20;7.40;;;;;;;15.36;100.00;62442.03;5091844;28;20261;-72
2022/05/01 06:53:20;;;;;;;8.07;6.23;;;;;;;14.95;100.00;62395.38;5091450;28;20671;-72
2022/05/01 06:55:50;;;;;;;10.17;7.37;;;;;;;15.23;100.00;62433.19;5091258;28;20219;-71
2022/05/01 06:58:16;;;;;;;8.97;6.57;;;;;;;15.53;100.00;62462.94;5091358;28;20601;-72
2022/05/01 07:00:45;;;;;;;7.77;5.80;;;;;;;15.23;100.00;62428.06;5091401;28;20227;-72
2022/05/01 07:03:12;;;;;;;9.57;7.07;;;;;;;15.31;100.00;62438.69;5091845;28;20252;-73
2022/05/01 07:05:39;;;;;;;8.90;6.53;;;;;;;15.25;100.00;62425.06;5092193;28;20200;-74
2022/05/01 07:08:07;;;;;;;7.50;5.77;;;;;;;15.49;100.00;62453.50;5095744;28;20244;-73
2022/05/01 07:10:33;;;;;;;13.53;7.30;;;;;;;15.41;100.00;62449.44;5095113;28;20195;-72
2022/05/01 07:13:02;;;;;;;7.83;6.63;;;;;;;15.79;100.00;62485.78;5095240;28;20196;-72
2022/05/01 07:15:29;;;;;;;11.70;6.27;;;;;;;15.94;100.00;62499.38;5095187;28;20256;-72
2022/05/01 07:17:56;;;;;;;8.03;6.23;;;;;;;15.87;100.00;62496.97;5095465;28;20707;-73
2022/05/01 07:20:23;;;;;;;7.43;6.17;;;;;;;16.04;100.00;62512.69;5094988;28;20231;-72
2022/05/01 07:22:50;;;;;;;9.70;6.47;;;;;;;16.10;100.00;62516.06;5094885;28;20241;-74
2022/05/01 07:25:20;;;;;;;7.73;6.00;;;;;;;16.27;100.00;62538.97;5095485;28;20275;-72
2022/05/01 07:27:48;;;;;;;7.60;6.23;;;;;;;16.30;100.00;62542.72;5095119;28;20659;-73
2022/05/01 07:30:17;;;;;;;8.83;5.93;;;;;;;16.41;100.00;62554.06;5095443;28;20693;-73
2022/05/01 07:32:44;;;;;;;9.13;5.97;;;;;;;17.10;100.00;62628.44;5094959;28;20281;-72
2022/05/01 07:35:11;;;;;;;12.47;5.77;;;;;;;17.35;100.00;62654.84;5094853;28;20200;-72
2022/05/01 07:37:38;;;;;;;7.33;5.80;;;;;;;17.65;100.00;62680.03;5094822;28;20199;-72
2022/05/01 07:40:06;;;;;;;7.50;6.10;;;;;;;17.58;100.00;62679.69;5094505;28;20341;-72
2022/05/01 07:42:33;;;;;;;7.17;5.87;;;;;;;17.44;100.00;62665.09;5095000;28;20265;-72
2022/05/01 07:44:59;;;;;;;6.83;6.07;;;;;;;17.63;100.00;62688.19;5094849;28;20200;-73
2022/05/01 07:47:28;;;;;;;6.77;5.60;;;;;;;17.22;100.00;62641.38;5094881;28;20273;-73
2022/05/01 07:49:54;;;;;;;9.97;5.23;;;;;;;17.37;100.00;62660.13;5094343;28;20195;-72
2022/05/01 07:52:21;;;;;;;6.70;5.37;;;;;;;17.32;100.00;62649.06;5094439;28;20196;-73
2022/05/01 07:54:48;;;;;;;7.30;5.10;;;;;;;16.96;100.00;62612.81;5094136;28;20199;-72
2022/05/01 07:57:15;;;;;;;4.90;4.40;;;;;;;17.21;100.00;62642.88;5094824;28;20204;-72
2022/05/01 07:59:43;;;;;;;7.90;4.90;;;;;;;17.44;100.00;62667.69;5094309;28;20297;-72
2022/05/01 08:02:10;;;;;;;4.97;3.90;;;;;;;16.92;100.00;62603.34;5094521;28;20196;-73
2022/05/01 08:04:37;;;;;;;7.03;4.90;;;;;;;16.87;100.00;62611.91;5094292;28;20287;-72
2022/05/01 08:07:08;;;;;;;8.23;4.90;;;;;;;17.35;100.00;62655.41;5094521;28;20200;-72
2022/05/01 08:09:36;;;;;;;7.13;4.63;;;;;;;17.23;100.00;62647.59;5094203;28;20666;-71
2022/05/01 08:12:04;;;;;;;4.87;4.03;;;;;;;16.41;100.00;62557.16;5094424;28;20514;-73
2022/05/01 08:14:31;;;;;;;5.73;4.40;;;;;;;16.82;100.00;62595.69;5093943;28;20629;-73
2022/05/01 08:16:58;;;;;;;5.50;4.17;;;;;;;16.84;100.00;62597.84;5093476;28;20314;-73
2022/05/01 08:22:10;;;;;;;4.83;4.17;;;;;;;17.82;100.00;62699.88;5094082;28;20260;-74
2022/05/01 08:24:37;;;;;;;6.17;4.23;;;;;;;17.71;100.00;62694.25;5093485;28;20600;-72
2022/05/01 08:27:06;;;;;;;6.97;3.80;;;;;;;17.72;100.00;62689.63;5093759;28;20204;-72
2022/05/01 08:29:34;;;;;;;4.83;3.33;;;;;;;17.69;100.00;62691.53;5093878;28;20235;-72
2022/05/01 08:32:02;;;;;;;5.33;3.83;;;;;;;17.62;100.00;62681.97;5093565;28;20239;-73
2022/05/01 08:34:30;;;;;;;5.37;3.77;;;;;;;17.98;100.00;62717.69;5094366;28;20248;-72
2022/05/01 08:36:57;;;;;;;8.80;3.73;;;;;;;18.43;100.00;62768.84;5093631;28;20626;-72
2022/05/01 08:39:25;;;;;;;4.30;3.40;;;;;;;18.57;100.00;62783.41;5093515;28;20245;-73
2022/05/01 08:41:52;;;;;;;6.20;3.80;;;;;;;18.37;100.00;62761.81;5093638;28;20288;-72
2022/05/01 08:44:29;;;;;;;4.10;3.70;;;;;;;18.40;100.00;62768.16;5093560;28;20203;-75
2022/05/01 08:47:02;;;;;;;4.33;3.20;;;;;;;18.34;100.00;62764.25;5094017;28;20256;-73
2022/05/01 08:49:32;;;;;;;5.13;3.47;;;;;;;18.20;100.00;62743.44;5093410;28;20663;-73
2022/05/01 08:52:01;;;;;;;4.87;2.87;;;;;;;18.34;100.00;62758.56;5093585;28;20200;-73
2022/05/01 08:54:33;;;;;;;5.53;3.23;;;;;;;18.66;100.00;62795.72;5093392;28;20195;-72
2022/05/01 08:57:01;;;;;;;5.23;3.30;;;;;;;18.40;100.00;62763.00;5093383;28;20261;-72
2022/05/01 08:59:31;;;;;;;4.53;2.83;;;;;;;19.07;100.00;62834.81;5093481;28;20191;-72
2022/05/01 09:01:58;;;;;;;4.20;2.77;;;;;;;19.38;100.00;62867.25;5093530;28;20228;-73
2022/05/01 09:04:28;;;;;;;3.40;2.10;;;;;;;18.96;100.00;62828.09;5093266;28;20248;-72
2022/05/01 09:06:57;;;;;;;4.07;3.07;;;;;;;19.17;100.00;62848.22;5093143;28;20203;-72
2022/05/01 09:09:24;;;;;;;2.90;2.60;;;;;;;18.93;100.00;62830.03;5093219;28;20195;-74
2022/05/01 09:14:40;;;;;;;7.30;3.10;;;;;;;19.28;100.00;62860.09;5093170;28;20586;-72
2022/05/01 09:17:15;;;;;;;2.93;2.43;;;;;;;20.05;100.00;62940.19;5092876;28;20196;-73
2022/05/01 09:19:42;;;;;;;3.83;2.47;;;;;;;20.32;100.00;62974.03;5092871;28;20195;-73
2022/05/01 09:22:09;;;;;;;4.03;2.80;;;;;;;20.41;100.00;62981.19;5092989;28;20300;-74
2022/05/01 09:24:36;;;;;;;3.60;2.47;;;;;;;20.14;100.00;62954.56;5092918;28;20250;-72
2022/05/01 09:27:05;;;;;;;3.00;2.30;;;;;;;19.44;100.00;62874.25;5092891;28;20203;-73
2022/05/01 09:29:35;;;;;;;2.83;2.47;;;;;;;19.87;100.00;62925.34;5093151;28;20728;-72
2022/05/01 09:32:04;;;;;;;2.53;2.33;;;;;;;19.79;100.00;62911.53;5092864;28;20231;-72
2022/05/01 09:34:32;;;;;;;2.60;2.20;;;;;;;19.76;100.00;62910.91;5092309;28;20195;-73
2022/05/01 09:37:01;;;;;;;3.80;2.63;;;;;;;19.12;100.00;62845.38;5092737;28;20196;-73
2022/05/01 09:39:29;;;;;;;4.97;2.10;;;;;;;19.50;100.00;62880.22;5092203;28;20747;-72
2022/05/01 09:42:13;;;;;;;5.43;2.10;;;;;;;20.41;100.00;62983.75;5093082;28;20227;-72
2022/05/01 09:44:41;;;;;;;3.07;2.77;;;;;;;20.36;100.00;62973.19;5092477;28;20196;-74
2022/05/01 09:47:08;;;;;;;2.73;1.93;;;;;;;20.49;100.00;62992.41;5093176;28;20200;-72
2022/05/01 09:49:48;;;;;;;2.90;2.23;;;;;;;20.47;100.00;62989.72;5092684;28;20630;-72
2022/05/01 09:52:17;;;;;;;6.23;4.73;;;;;;;20.83;100.00;63026.59;5092406;28;20298;-73
2022/05/01 09:55:01;;;;;;;5.67;2.63;;;;;;;21.12;85.86;63059.50;5092161;28;20207;-72
2022/05/01 09:57:29;;;;;;;2.20;2.00;;;;;;;21.51;86.50;63099.13;5092195;28;20231;-73
2022/05/01 09:59:57;;;;;;;2.80;2.13;;;;;;;21.17;81.93;63062.88;5092264;28;20238;-73
2022/05/01 10:02:30;;;;;;;6.37;3.90;;;;;;;20.51;85.23;62992.00;5092022;28;20200;-74
2022/05/01 10:05:02;;;;;;;2.47;2.27;;;;;;;19.60;100.00;62896.19;5092100;28;20199;-74
2022/05/01 10:07:36;;;;;;;4.67;2.30;;;;;;;20.21;94.90;62962.13;5092052;28;20200;-73
2022/05/01 10:10:07;;;;;;;3.57;2.20;;;;;;;19.87;91.99;62920.19;5092043;28;20191;-72
2022/05/01 10:12:41;;;;;;;4.43;2.20;;;;;;;20.74;93.00;63019.47;5092161;28;20199;-74
2022/05/01 10:15:11;;;;;;;5.10;2.07;;;;;;;21.28;93.87;63071.63;5092224;28;20271;-74
2022/05/01 10:17:39;;;;;;;2.30;2.10;;;;;;;21.23;82.28;63071.41;5091822;28;20230;-73
2022/05/01 10:20:07;;;;;;;2.33;1.97;;;;;;;21.47;75.40;63097.41;5091454;28;20658;-73
2022/05/01 10:22:36;;;;;;;3.00;1.80;;;;;;;21.09;79.62;63056.28;5091515;28;20210;-73
2022/05/01 10:25:08;;;;;;;4.13;2.00;;;;;;;20.89;82.93;63029.97;5091879;28;20260;-73
2022/05/01 10:27:45;;;;;;;4.27;2.00;;;;;;;20.11;83.87;62951.31;5091634;28;20203;-74
2022/05/01 10:33:31;;;;;;;4.03;2.87;;;;;;;21.57;78.33;63103.56;5091757;28;20242;-74
2022/05/01 10:36:26;;;;;;;7.67;3.37;;;;;;;21.81;76.75;63129.56;5091553;28;20282;-73
2022/05/01 10:39:06;;;;;;;4.57;2.40;;;;;;;21.67;79.54;63119.06;5091551;28;20195;-73
2022/05/01 10:41:33;;;;;;;3.20;2.37;;;;;;;21.47;74.98;63092.22;5091377;28;20235;-72
2022/05/01 10:44:02;;;;;;;2.60;2.40;;;;;;;21.70;78.85;63122.84;5091743;28;20732;-73
2022/05/01 10:46:32;;;;;;;5.73;2.10;;;;;;;22.16;86.07;63172.13;5091496;28;20275;-72
2022/05/01 10:49:05;;;;;;;4.53;2.40;;;;;;;22.92;79.24;63248.22;5091715;28;20196;-73
2022/05/01 10:51:49;;;;;;;2.60;2.30;;;;;;;22.62;68.09;63221.44;5091497;28;20587;-73
2022/05/01 10:54:38;;;;;;;2.50;1.90;;;;;;;22.17;68.19;63172.66;5091779;28;20252;-72
2022/05/01 10:57:16;;;;;;;4.73;2.40;;;;;;;21.70;70.06;63119.69;5091573;28;20661;-73
2022/05/01 10:59:49;;;;;;;3.13;2.10;;;;;;;21.13;71.32;63063.19;5091549;28;20238;-73
2022/05/01 11:02:24;;;;;;;7.07;2.30;;;;;;;22.20;71.87;63171.25;5091405;28;20280;-73
2022/05/01 11:04:53;;;;;;;2.13;1.93;;;;;;;21.88;76.29;63141.81;5091697;28;20203;-73
2022/05/01 11:07:21;;;;;;;4.50;2.13;;;;;;;21.99;81.68;63148.53;5091582;28;20191;-73
2022/05/01 11:09:50;;;;;;;3.93;2.03;;;;;;;22.50;74.77;63203.22;5092003;28;20207;-72
2022/05/01 11:12:19;;;;;;;3.07;2.43;;;;;;;22.21;67.57;63172.34;5091365;28;20203;-73
2022/05/01 11:14:52;;;;;;;2.60;2.30;;;;;;;22.19;67.88;63170.19;5091353;28;20266;-73
2022/05/01 11:17:50;;;;;;;5.10;2.60;;;;;;;22.63;64.22;63214.72;5091187;28;20278;-74
2022/05/01 11:20:32;;;;;;;2.27;2.07;;;;;;;21.64;62.01;63115.78;5091233;28;20195;-74
2022/05/01 11:23:00;;;;;;;8.27;2.40;;;;;;;21.34;71.81;63083.31;5090826;28;20781;-73
2022/05/01 11:25:32;;;;;;;5.10;2.30;;;;;;;21.06;76.43;63053.00;5091121;28;20203;-74
2022/05/01 11:27:59;;;;;;;4.20;2.30;;;;;;;20.84;80.04;63032.88;5091189;28;20291;-73
2022/05/01 11:30:34;;;;;;;2.93;2.50;;;;;;;21.32;77.28;63075.97;5089662;28;20203;-73
2022/05/01 11:33:05;;;;;;;2.40;2.13;;;;;;;20.69;72.92;63013.50;5091363;28;20264;-72
2022/05/01 11:35:55;;;;;;;4.77;2.10;;;;;;;21.65;77.65;63116.88;5090993;28;20203;-72
2022/05/01 11:38:22;;;;;;;3.47;2.30;;;;;;;22.00;74.16;63154.25;5090761;28;20675;-72
2022/05/01 11:40:54;;;;;;;4.10;2.47;;;;;;;21.85;72.10;63136.50;5090607;28;20239;-73
2022/05/01 11:43:23;;;;;;;2.37;2.13;;;;;;;21.09;72.96;63051.09;5090627;28;20227;-73
2022/05/01 11:45:52;;;;;;;3.00;2.13;;;;;;;20.39;79.66;62976.44;5090733;28;20273;-72
2022/05/01 11:48:21;;;;;;;2.33;2.10;;;;;;;20.25;84.22;62963.34;5090464;28;20638;-74
2022/05/01 11:50:50;;;;;;;3.40;2.30;;;;;;;19.61;85.74;62897.25;5090886;28;20203;-74